RESULTATS »

INSCRITS PRESENTATS ACABEN RETIRATS DESQUALIFICATS DIST. TRAM 1 DIST. TRAM 2 DIST. TRAM 3 TEMP. EXT TEMP. AIGUA
0 0 0 0 750 20 5 0 0

CLASSIFICACIÓ

MASCULÍ FEMENÍ CATEGORIES CLUBS (MASCULINA) CLUBS (FEMENINA) INDIVIDUALS GRUPS D'EDAT

LLOCDORSALNOMCLUBCAT.T.META| P.Tram 1 || P.Tram 2 |Km/hTEMPS| P.Tram 3 |PARC_1PARC_2
1 112NURIA PUBILL LLEONARTC.T.S.J. ABADESSESABF01:07:142600:10:3911700:36:0833.2100:46:4713800:20:270:00:000:00:00
2 22DOLÇA OLLE GATELLC.N. REUS PLOMSABF01:08:094300:11:0410300:35:4233.6100:46:4619000:21:230:00:000:00:00
3 107ANABEL GRACIA GARASAC.D. FASTTRIATLONABF01:08:537100:11:3718900:37:4331.8200:49:207700:19:330:00:000:00:00
4 33SARA LOEHR MUÑOZC.N. MATAROABF01:09:148200:11:4913600:36:3432.8200:48:2316500:20:510:00:000:00:00
5 66BARBARA VASSILATOSC.T.S.J. ABADESSESV1F01:10:3015000:12:5411900:36:1133.1600:49:0519200:21:250:00:000:00:00
6 1814LAIA PI BOLTAC.N. CATALUNYASUB23F01:10:306800:11:3318100:37:3131.9900:49:0419500:21:260:00:000:00:00
7 2000LAIA GALI MONTIELC.T.S.J. ABADESSESABF01:11:5914100:12:4716100:37:0932.3000:49:5623000:22:030:00:000:00:00
8 1852AIDA PINTÓ BIESCASC.N. MANRESAABF01:12:048400:11:5419700:38:0531.5100:49:5923200:22:050:00:000:00:00
9 1976PILAR RUS GARCIAC.N. REUS PLOMSABF01:12:1822000:14:0418600:37:3931.8700:51:4314200:20:350:00:000:00:00
10 1905CAROLINA VALMAÑA PIC.N. CATALUNYAABF01:13:4619900:13:5019900:38:0831.4700:51:5821600:21:480:00:000:00:00
11 3509ANAIS RIVAS TORRESC.N. MATAROSUB23F01:14:086100:11:2431900:42:0728.4900:53:3114800:20:370:00:000:00:00
12 1957BARBARA GINER HINTERMAYERSOC ATLETICA CORBERAABF01:14:2816400:13:1521200:38:3631.0900:51:5126100:22:370:00:000:00:00
13 3503GLÒRIA ESPINAR MAQUEDACLUB WATERPOLO FIGUERESABF01:15:293200:10:4428900:40:5829.2900:51:4232800:23:470:00:000:00:00
14 1912MERCE ASENSIO MIGUELC.N. CATALUNYAV1F01:15:3216200:13:1124900:39:4330.2100:52:5426400:22:380:00:000:00:00
15 4031MARIA PUIG CIDCLUB ESPORTIU TRIENJOY RAABF01:16:0226000:14:37000:00:000.0000:00:00000:00:000:00:000:00:00
16 4045IRENE RODRIGUEZ GUELLCLUB TRIATLO BLANESABF01:16:2227100:14:4625200:39:5030.1300:54:3621500:21:460:00:000:00:00
17 1837LAURA MAQUEDA MARCOSC.N. PRAT-TRIATLOABF01:16:289600:12:0525000:39:4430.2000:51:4935900:24:390:00:000:00:00
18 1902Mª ANGELS MARZO GOMEZCLUB NATACIÓ SITGESABF01:16:337000:11:3629700:41:1929.0400:52:5532100:23:380:00:000:00:00
19 1883MIREIA MONTANER MASSANACLUB ATLETISME VILAFRANCAJNF01:16:4116300:13:1129800:41:2029.0300:54:3123600:22:100:00:000:00:00
20 1961CATERINA STOCKERNATS SPORT SAABF01:16:5521500:13:5924300:39:3230.3500:53:3130900:23:240:00:000:00:00
21 1909EULALIA CALVERAS AUGEC.T.S.J. ABADESSESV1F01:16:5930200:15:0929500:41:0629.2000:56:1515900:20:440:00:000:00:00
22 1866GEMMA RIU BOTIFOLLC.E. SERRADELLS TRIATLOABF01:17:252300:10:3734200:43:2327.6600:54:0031000:23:250:00:000:00:00
23 4080MIRIAM ALBERO ABASCALI3 TRIATHLONSUB23F01:17:4617700:13:3029200:41:0129.2600:54:3130000:23:150:00:000:00:00
24 1898DELIA BANUS PEDRENYCLUB NATACIÓ SITGESABF01:18:5424900:14:2625800:40:0429.9500:54:3035000:24:240:00:000:00:00
25 3521MONICA CRISOL SALASC.N. PRAT-TRIATLOABF01:19:0422500:14:07000:00:000.0000:00:00000:00:000:00:000:00:00
26 1956ARANTXA LOPEZ GRAUCLUB ESPAI ESPORT WELLNESABF01:19:059800:12:0728600:40:5229.3600:52:5940900:26:060:00:000:00:00
27 4043MAR PUIG GUALSC.N. MANRESAV1F01:19:0627300:14:4730300:41:4228.7800:56:2926000:22:370:00:000:00:00
28 4051CLARA SEGUÉS VIDALC.N. CATALUNYAABF01:19:1227400:14:4829000:41:0029.2700:55:4830800:23:240:00:000:00:00
29 3540MAJE RODRÍGUEZ ARIASC.A. RIBAGORÇANAABF01:19:1425100:14:2726700:40:1729.7900:54:4435600:24:300:00:000:00:00
30 4064AROA GERTRUDIX PRIETO C.N. REUS PLOMSJNF01:19:358900:11:5728700:40:5329.3500:52:5041900:26:450:00:000:00:00
31 3522DOLORS PALAU CARULLAC.T.S.J. ABADESSESABF01:19:5612900:12:3931300:41:5728.6100:54:3638400:25:200:00:000:00:00
32 3553LAIA MARTIN MAGDALENAGAVA TRIATLOCDF01:19:5818700:13:4331600:41:5928.5800:55:4234600:24:160:00:000:00:00
33 3588ESTHER VIDAL PAJARESC.A. RIBAGORÇANAABF01:20:1736600:16:0324000:39:2530.4400:55:2836300:24:490:00:000:00:00
34 1907MIREIA SÁNCHEZ SALAMÍI3 TRIATHLONV1F01:20:2215900:13:0736700:44:1627.1100:57:2328500:22:590:00:000:00:00
35 3530MONICA MINGUET ADROHERINDEPENDIENTEV1F01:20:4219400:13:4734700:43:3027.5900:57:1731100:23:250:00:000:00:00
36 3525GEMMA FARRE VILAINDEPENDIENTEABF01:20:5533500:15:3132300:42:2328.3100:57:5428700:23:010:00:000:00:00
37 3584EVA SANCHEZ TABIOSCLUB TRIATLO L´EIX DE NAVABF01:21:1732500:15:2333600:42:5927.9200:58:2228200:22:550:00:000:00:00
38 5024ANAÏS COBO AYUELALLICENCIA DE DIAABF01:21:3410500:12:2135900:43:5327.3500:56:1438500:25:200:00:000:00:00
39 4992MIREIA FERRER LUISLA SALLE TRIATLOABF01:21:44000:00:00000:00:000.0000:58:2830300:23:160:00:000:00:00
40 3519ESTER MENDOZA MORENOC.N. VIC-ETBABF01:21:5427200:14:4735300:43:4027.4800:58:2731400:23:270:00:000:00:00
41 123CATARINA SOUSACLUB TRIATLO SABADELLABF01:22:008800:11:5637100:44:3926.8800:56:3538700:25:250:00:000:00:00
42 5033MARTA MUÑOZ RUIZLLICENCIA DE DIAV1F01:22:0331200:15:1627900:40:3929.5200:55:5541000:26:080:00:000:00:00
43 6003JUDITH DIAZ BATLLELLICENCIA DE DIAABF01:22:3810600:12:2238600:45:2026.4700:57:4236800:24:560:00:000:00:00
44 1815BELÉN SALOMONI SCHWABCLUB TRIATLO RUNNERSWORLDSUB23F01:23:2326200:14:3833700:43:0027.9100:57:3840000:25:450:00:000:00:00
45 4079LAURA GONZALVO BONILLAI3 TRIATHLONABF01:23:5619000:13:4437000:44:3426.9300:58:1839400:25:380:00:000:00:00
46 4062GEMMA GOTOR NAVARRAC.N. CATALUNYAABF01:24:0129600:15:0434500:43:2627.6300:58:3039000:25:310:00:000:00:00
47 5034VERONICA GARCIA COLOMALLICENCIA DE DIAV1F01:24:1130300:15:1032400:42:2528.2900:57:3541600:26:360:00:000:00:00
48 1950MONICA CISCAR GILCLUB NATACIO SITGESV1F01:24:1233100:15:2734800:43:3127.5800:58:5838100:25:140:00:000:00:00
49 20MONSERRAT CLAVERO SANCHEZC.N. REUS PLOMSV2F01:24:1839900:16:4430100:41:3028.9200:58:1440700:26:040:00:000:00:00
50 5018SILVIA GUZMAN GARCIALLICENCIA DE DIAABF01:24:3338100:16:2337500:44:5526.7201:01:1830100:23:150:00:000:00:00
51 3569CRISTINA CASACUBERTA THIÓGAVA TRIATLOV1F01:24:3936400:16:0242600:51:4323.2001:07:45300:16:540:00:000:00:00
52 1882NÚRIA SELLARÉS TUÀNATS SPORT SAABF01:24:4039100:16:3530400:41:4328.7700:58:1841300:26:220:00:000:00:00
53 4085EULALIA MASRIERA ARNAUCLUB TRIATLO SABADELLABF01:26:0041800:17:1139800:46:3525.7601:03:4624200:22:140:00:000:00:00
54 103LIDIA URBAN MURILLOGAVA TRIATLOV1F01:26:1436300:15:5939300:46:1125.9801:02:1034000:24:040:00:000:00:00
55 5005NICOLA CHRISTOFOROULLICENCIA DE DIAV1F01:26:3135100:15:4338400:45:0726.6001:00:5039700:25:410:00:000:00:00
56 1926SILVIA VALLÉS MAESTROC.N. CATALUNYAABF01:26:3234600:15:3833400:42:5327.9800:58:3143000:28:010:00:000:00:00
57 4056MARLENE OVEJERO LAINCLUB ESPORTIU CALAFELL RUABF01:26:3936500:16:0338500:45:1026.5701:01:1338800:25:260:00:000:00:00
58 64SONIA POCH CARDUSC.N. VILAFRANCAABF01:27:0033800:15:3233900:43:1227.7800:58:4443200:28:160:00:000:00:00
59 4991MÒNICA BATLLE CARRERASCLUB TRITRAININGABF01:27:1123700:14:1638200:45:0526.6200:59:2142800:27:500:00:000:00:00
60 6007MÓNICA FERNÁNDEZ CASTROLLICENCIA DE DIAABF01:27:5343300:18:0637900:45:0326.6401:03:0936100:24:440:00:000:00:00
61 4017MARIA SABROSO OLIETETRI FOR LIVE MARTORELLABF01:27:5938300:16:2939900:46:3825.7301:03:0736500:24:520:00:000:00:00
62 47LAURA RODRIGUEZ BOTIASCERDANYOLA CHABF01:28:1540400:16:5239200:45:5126.1701:02:4339100:25:320:00:000:00:00
63 1851MARTA SANCHEZ SALINASCLUB TRIATLO L´EIX DE NAVV1F01:29:0737100:16:1040700:47:3825.1901:03:4838200:25:190:00:000:00:00
64 45SARA SUAREZ   PUBILLC.N. PRAT-TRIATLOABF01:29:2038900:16:3236100:43:5927.2801:00:3143800:28:490:00:000:00:00
65 5021GEMMA SAURET VIDALLLICENCIA DE DIAABF01:29:4435400:15:4541900:49:1324.3801:04:5836200:24:460:00:000:00:00
66 16ROSA MARIA MOR ABATCLUB CASTELLFOLLIT TRIATLV2F01:30:3644200:19:0538700:45:2626.4101:04:3140800:26:050:00:000:00:00
67 1899EMMA CASAS ADELLCLUB NATACIÓ SITGESABF01:31:1120600:13:5640600:47:2925.2701:01:2544300:29:460:00:000:00:00
68 1821ELENA SUERO PEREZCLUB TRIATLO SABADELLABF01:31:2441200:16:5941200:48:2324.8001:05:2240500:26:020:00:000:00:00
69 6004IMMA GORJON LOPEZLLICENCIA DE DIAV1F01:31:5719100:13:4541700:48:4324.6301:02:2844200:29:290:00:000:00:00
70 4063ALESSANDRA HUERTA DEL VECKOMANDO 226 ERSABF01:34:4646000:22:2840000:46:3825.7301:09:0639500:25:400:00:000:00:00
71 4073IRENE FERNANDEZ MINGCLUB ESPORTIU CALAFELL RUABF01:35:15000:00:00000:00:000.0001:06:1644000:28:590:00:000:00:00
72 1897CONXI PEREZ PEREDAINDEPENDIENTEV1F01:35:5844400:19:1542200:50:0423.9701:09:1941700:26:390:00:000:00:00
73 3545SANDRA VENTOSA TORRENSTRIATLO BCN-TRIFORFUNABF01:36:0928100:14:5343100:53:4222.3501:08:3542600:27:340:00:000:00:00
74 5032MARIA JESÚS SERRANO RODRLLICENCIA DE DIAV1F01:36:16000:00:00000:00:000.0000:00:00000:00:000:00:000:00:00
75 1860MONTSE PRADA MEDINACERDANYOLA CHABF01:37:07000:00:00000:00:000.0000:00:00000:00:000:00:000:00:00
76 5026MARTA FONT BELMONTELLICENCIA DE DIASUB23F01:37:5844300:19:0942900:53:0322.6201:12:1240100:25:460:00:000:00:00
77 4001TERESA LAPUENTE PALACIOSCLUB NATACIO SITGESV1F01:39:29000:00:00000:00:000.0001:08:5844400:30:310:00:000:00:00
78 3539GEMMA MANYOSA ENRIQUECLUB TRIATLO SABADELLABF01:39:5245600:20:40000:00:000.0000:00:00000:00:000:00:000:00:00
79 3581TERESA COPETE VIDALCLUB NATACIO VALLDOREIXV1F01:40:4343700:18:43000:00:000.0000:00:00000:00:000:00:000:00:00
80 3583MARIA DOLORS LÓPEZ GÓMEZCLUB NATACIO VALLDOREIXV2F01:45:48000:00:00000:00:000.0001:13:5744600:31:510:00:000:00:00






FEDERACIÓ CATALANA DE TRIATLÓ
SEU CENTRAL I CORRESPONDÈNCIA: Rambla Guipúscoa 23-25 2on-D · 08018 Barcelona · Tel / Fax : 93 307 93 35
ATENCIÓ AL PÚBLIC: Passeig Joan de Borbó, 93 (Club Natació Barcelona) · 08039 Barcelona · Tel / Fax : 93 307 93 32